createdAt,value
2023-01-03T00:02:07.878Z,8.92
2023-01-03T00:04:34.617Z,8.96
2023-01-03T00:07:01.616Z,8.96
2023-01-03T00:09:28.179Z,8.97
2023-01-03T00:12:13.897Z,8.95
2023-01-03T00:14:42.992Z,8.88
2023-01-03T00:17:10.874Z,8.83
2023-01-03T00:19:42.905Z,8.81
2023-01-03T00:22:10.769Z,8.76
2023-01-03T00:24:37.789Z,8.75
2023-01-03T00:27:04.769Z,8.74
2023-01-03T00:29:31.202Z,8.75
2023-01-03T00:31:57.673Z,8.72
2023-01-03T00:34:24.153Z,8.66
2023-01-03T00:36:50.637Z,8.62
2023-01-03T00:39:17.173Z,8.62
2023-01-03T00:41:43.701Z,8.58
2023-01-03T00:44:10.559Z,8.62
2023-01-03T00:46:37.062Z,8.66
2023-01-03T00:49:04.856Z,8.71
2023-01-03T00:51:33.725Z,8.62
2023-01-03T00:54:01.607Z,8.62
2023-01-03T00:56:31.094Z,8.65
2023-01-03T00:58:57.613Z,8.58
2023-01-03T01:01:39.448Z,8.54
2023-01-03T01:04:25.583Z,8.53
2023-01-03T01:06:55.023Z,8.52
2023-01-03T01:09:26.201Z,8.48
2023-01-03T01:11:53.382Z,8.48
2023-01-03T01:14:22.408Z,8.50
2023-01-03T01:16:53.738Z,8.44
2023-01-03T01:19:26.768Z,8.44
2023-01-03T01:21:53.308Z,8.45
2023-01-03T01:24:20.192Z,8.45
2023-01-03T01:26:47.110Z,8.46
2023-01-03T01:29:15.297Z,8.37
2023-01-03T01:31:42.822Z,8.36
2023-01-03T01:34:09.812Z,8.35
2023-01-03T01:36:37.827Z,8.28
2023-01-03T01:39:09.675Z,8.29
2023-01-03T01:41:55.622Z,8.22
2023-01-03T01:44:40.595Z,8.14
2023-01-03T01:47:38.178Z,8.17
2023-01-03T01:50:13.767Z,8.13
2023-01-03T01:52:45.998Z,8.08
2023-01-03T01:55:16.115Z,8.10
2023-01-03T01:57:44.043Z,8.07
2023-01-03T02:00:11.434Z,8.00
2023-01-03T02:02:38.119Z,8.03
2023-01-03T02:05:07.438Z,8.05
2023-01-03T02:07:34.675Z,7.99
2023-01-03T02:10:01.670Z,7.96
2023-01-03T02:13:03.460Z,7.92
2023-01-03T02:15:56.887Z,7.85
2023-01-03T02:19:01.680Z,7.83
2023-01-03T02:22:00.403Z,7.88
2023-01-03T02:24:32.845Z,7.82
2023-01-03T02:27:20.969Z,7.85
2023-01-03T02:30:09.230Z,7.86
2023-01-03T02:32:41.639Z,7.92
2023-01-03T02:35:34.943Z,7.92
2023-01-03T02:38:27.716Z,7.94
2023-01-03T02:41:27.152Z,7.96
2023-01-03T02:44:04.971Z,7.96
2023-01-03T02:46:42.535Z,8.02
2023-01-03T02:49:18.243Z,7.98
2023-01-03T02:51:48.556Z,7.96
2023-01-03T02:54:20.958Z,8.00
2023-01-03T02:56:54.300Z,7.98
2023-01-03T02:59:35.805Z,8.02
2023-01-03T03:02:03.883Z,8.03
2023-01-03T03:04:32.336Z,8.01
2023-01-03T03:07:08.206Z,8.01
2023-01-03T03:09:55.004Z,8.06
2023-01-03T03:12:42.475Z,8.03
2023-01-03T03:15:11.164Z,7.98
2023-01-03T03:17:38.351Z,7.98
2023-01-03T03:20:35.173Z,7.95
2023-01-03T03:23:34.698Z,7.96
2023-01-03T03:26:08.887Z,7.89
2023-01-03T03:28:38.351Z,7.86
2023-01-03T03:31:27.454Z,7.87
2023-01-03T03:34:10.125Z,7.85
2023-01-03T03:37:14.353Z,7.80
2023-01-03T03:39:59.357Z,7.74
2023-01-03T03:42:54.991Z,7.69
2023-01-03T03:45:30.284Z,7.65
2023-01-03T03:48:21.755Z,7.57
2023-01-03T03:50:52.468Z,7.53
2023-01-03T03:53:24.362Z,7.42
2023-01-03T03:55:58.841Z,7.32
2023-01-03T03:58:34.445Z,7.23
2023-01-03T04:01:04.857Z,7.12
2023-01-03T04:03:32.763Z,7.09
2023-01-03T04:06:08.777Z,7.01
2023-01-03T04:08:35.452Z,6.95
2023-01-03T04:11:07.938Z,6.89
2023-01-03T04:13:38.619Z,6.78
2023-01-03T04:16:06.727Z,6.75
2023-01-03T04:18:33.629Z,6.73
2023-01-03T04:21:00.096Z,6.62
2023-01-03T04:23:26.807Z,6.54
2023-01-03T04:25:53.686Z,6.47
2023-01-03T04:28:20.331Z,6.35
2023-01-03T04:30:47.218Z,6.27
2023-01-03T04:33:13.994Z,6.18
2023-01-03T04:35:40.624Z,6.03
2023-01-03T04:38:08.148Z,5.94
2023-01-03T04:40:35.163Z,5.87
2023-01-03T04:43:20.397Z,5.82
2023-01-03T04:45:50.383Z,5.73
2023-01-03T04:48:17.617Z,5.65
2023-01-03T04:50:54.692Z,5.64
2023-01-03T04:53:22.662Z,5.57
2023-01-03T04:55:50.968Z,5.53
2023-01-03T04:58:18.036Z,5.47
2023-01-03T05:00:44.504Z,5.34
2023-01-03T05:03:11.122Z,5.25
2023-01-03T05:05:39.235Z,5.21
2023-01-03T05:08:11.348Z,5.16
2023-01-03T05:10:38.930Z,5.11
2023-01-03T05:13:05.366Z,5.05
2023-01-03T05:15:35.712Z,5.02
2023-01-03T05:18:02.149Z,4.96
2023-01-03T05:20:47.321Z,4.92
2023-01-03T05:23:34.605Z,4.89
2023-01-03T05:26:04.744Z,4.88
2023-01-03T05:28:31.631Z,4.85
2023-01-03T05:30:58.843Z,4.83
2023-01-03T05:33:25.438Z,4.84
2023-01-03T05:35:51.945Z,4.80
2023-01-03T05:38:18.831Z,4.82
2023-01-03T05:40:45.532Z,4.80
2023-01-03T05:43:11.998Z,4.80
2023-01-03T05:45:39.510Z,4.86
2023-01-03T05:48:06.633Z,4.78
2023-01-03T05:50:33.502Z,4.76
2023-01-03T05:52:59.948Z,4.69
2023-01-03T05:55:26.419Z,4.66
2023-01-03T05:57:53.253Z,4.62
2023-01-03T06:00:19.796Z,4.62
2023-01-03T06:02:46.401Z,4.55
2023-01-03T06:05:13.100Z,4.54
2023-01-03T06:07:39.691Z,4.51
2023-01-03T06:10:06.984Z,4.50
2023-01-03T06:12:33.464Z,4.49
2023-01-03T06:14:59.951Z,4.52
2023-01-03T06:17:45.122Z,4.54
2023-01-03T06:20:11.789Z,4.59
2023-01-03T06:22:38.339Z,4.60
2023-01-03T06:25:05.121Z,4.62
2023-01-03T06:27:31.560Z,4.65
2023-01-03T06:29:57.970Z,4.68
2023-01-03T06:32:24.389Z,4.69
2023-01-03T06:34:51.308Z,4.70
2023-01-03T06:37:17.990Z,4.70
2023-01-03T06:39:45.542Z,4.68
2023-01-03T06:42:30.496Z,4.66
2023-01-03T06:45:15.259Z,4.65
2023-01-03T06:48:00.522Z,4.63
2023-01-03T06:50:45.345Z,4.65
2023-01-03T06:53:18.176Z,4.63
2023-01-03T06:55:48.908Z,4.65
2023-01-03T06:58:19.215Z,4.67
2023-01-03T07:00:46.432Z,4.64
2023-01-03T07:03:12.898Z,4.64
2023-01-03T07:05:39.481Z,4.64
2023-01-03T07:08:05.979Z,4.64
2023-01-03T07:10:32.478Z,4.62
2023-01-03T07:13:20.688Z,4.63
2023-01-03T07:15:47.076Z,4.59
2023-01-03T07:18:13.865Z,4.59
2023-01-03T07:20:44.212Z,4.61
2023-01-03T07:23:11.891Z,4.58
2023-01-03T07:25:41.804Z,4.60
2023-01-03T07:28:13.234Z,4.63
2023-01-03T07:30:41.519Z,4.64
2023-01-03T07:33:09.644Z,4.66
2023-01-03T07:35:37.151Z,4.69
2023-01-03T07:38:04.883Z,4.69
2023-01-03T07:40:32.104Z,4.76
2023-01-03T07:43:17.697Z,4.76
2023-01-03T07:45:45.140Z,4.79
2023-01-03T07:48:12.825Z,4.85
2023-01-03T07:50:40.005Z,4.86
2023-01-03T07:53:07.852Z,4.86
2023-01-03T07:55:36.248Z,4.92
2023-01-03T07:58:03.449Z,4.93
2023-01-03T08:00:29.876Z,4.97
2023-01-03T08:02:56.369Z,5.05
2023-01-03T08:05:23.544Z,5.14
2023-01-03T08:07:51.761Z,5.18
2023-01-03T08:10:38.067Z,5.21
2023-01-03T08:13:17.455Z,5.24
2023-01-03T08:15:55.457Z,5.34
2023-01-03T08:18:26.566Z,5.37
2023-01-03T08:20:55.588Z,5.41
2023-01-03T08:23:25.759Z,5.47
2023-01-03T08:25:58.908Z,5.56
2023-01-03T08:28:25.303Z,5.69
2023-01-03T08:30:52.010Z,5.86
2023-01-03T08:33:19.580Z,5.99
2023-01-03T08:35:52.932Z,6.17
2023-01-03T08:38:26.026Z,6.36
2023-01-03T08:40:53.733Z,6.54
2023-01-03T08:43:20.529Z,6.73
2023-01-03T08:45:48.429Z,6.90
2023-01-03T08:48:18.493Z,7.04
2023-01-03T08:50:45.747Z,7.15
2023-01-03T08:53:12.143Z,7.31
2023-01-03T08:55:38.543Z,7.36
2023-01-03T08:58:08.864Z,7.45
2023-01-03T09:00:37.024Z,7.56
2023-01-03T09:03:03.605Z,7.62
2023-01-03T09:05:30.168Z,7.72
2023-01-03T09:07:58.010Z,7.84
2023-01-03T09:10:24.800Z,7.95
2023-01-03T09:12:51.808Z,8.03
2023-01-03T09:15:18.493Z,8.01
2023-01-03T09:17:47.276Z,8.12
2023-01-03T09:20:15.332Z,8.04
2023-01-03T09:22:41.719Z,8.08
2023-01-03T09:25:08.865Z,8.13
2023-01-03T09:27:35.399Z,8.16
2023-01-03T09:30:02.657Z,8.35
2023-01-03T09:32:29.238Z,8.24
2023-01-03T09:34:55.641Z,8.13
2023-01-03T09:37:22.155Z,8.09
2023-01-03T09:39:48.560Z,8.11
2023-01-03T09:42:39.323Z,8.01
2023-01-03T09:45:08.033Z,8.09
2023-01-03T09:47:38.433Z,8.09
2023-01-03T09:50:29.564Z,7.96
2023-01-03T09:53:14.977Z,7.87
2023-01-03T09:56:11.875Z,7.97
2023-01-03T09:58:57.869Z,8.01
2023-01-03T10:01:52.121Z,8.02
2023-01-03T10:04:30.151Z,8.11
2023-01-03T10:07:35.289Z,7.95
2023-01-03T10:10:14.430Z,8.01
2023-01-03T10:12:56.564Z,8.07
2023-01-03T10:15:56.220Z,8.13
2023-01-03T10:18:37.418Z,8.24
2023-01-03T10:21:41.882Z,8.34
2023-01-03T10:24:24.919Z,8.36
2023-01-03T10:27:03.249Z,8.30
2023-01-03T10:29:29.625Z,8.33
2023-01-03T10:32:13.277Z,8.42
2023-01-03T10:34:39.987Z,8.36
2023-01-03T10:37:18.268Z,8.30
2023-01-03T10:39:44.938Z,8.29
2023-01-03T10:42:18.822Z,8.28
2023-01-03T10:45:01.489Z,8.32
2023-01-03T10:47:27.963Z,8.29
2023-01-03T10:50:02.039Z,8.20
2023-01-03T10:52:42.973Z,8.24
2023-01-03T10:55:15.586Z,8.21
2023-01-03T10:57:46.464Z,8.18
2023-01-03T11:00:38.010Z,8.04
2023-01-03T11:03:14.461Z,7.94
2023-01-03T11:05:43.420Z,8.00
2023-01-03T11:08:21.295Z,8.00
2023-01-03T11:11:00.828Z,8.09
2023-01-03T11:13:41.732Z,8.08
2023-01-03T11:16:17.006Z,8.07
2023-01-03T11:18:58.180Z,8.13
2023-01-03T11:21:50.536Z,8.21
2023-01-03T11:24:52.884Z,8.24
2023-01-03T11:27:51.703Z,8.39
2023-01-03T11:30:29.887Z,8.51
2023-01-03T11:33:14.072Z,8.55
2023-01-03T11:35:49.967Z,8.60
2023-01-03T11:38:24.936Z,8.58
2023-01-03T11:41:00.315Z,8.53
2023-01-03T11:43:54.711Z,8.51
2023-01-03T11:46:21.082Z,8.58
2023-01-03T11:49:02.672Z,8.53
2023-01-03T11:51:35.599Z,8.52
2023-01-03T11:54:05.220Z,8.60
2023-01-03T11:56:44.672Z,8.70
2023-01-03T11:59:33.175Z,8.74
2023-01-03T12:02:34.139Z,8.79
2023-01-03T12:05:10.559Z,8.91
2023-01-03T12:07:53.571Z,9.04
2023-01-03T12:10:26.814Z,9.21
2023-01-03T12:13:26.914Z,9.19
2023-01-03T12:16:03.201Z,9.25
2023-01-03T12:18:41.843Z,9.30
2023-01-03T12:21:20.650Z,9.33
2023-01-03T12:23:58.368Z,9.21
2023-01-03T12:26:26.877Z,9.10
2023-01-03T12:29:02.438Z,9.06
2023-01-03T12:31:43.482Z,8.95
2023-01-03T12:34:35.079Z,8.85
2023-01-03T12:37:13.837Z,8.83
2023-01-03T12:40:17.186Z,8.74
2023-01-03T12:42:58.048Z,8.73
2023-01-03T12:45:42.659Z,8.69
2023-01-03T12:48:53.700Z,8.62
2023-01-03T12:51:24.620Z,8.56
2023-01-03T12:54:15.596Z,8.51
2023-01-03T12:57:00.281Z,8.58
2023-01-03T12:59:47.789Z,8.60
2023-01-03T13:02:53.192Z,8.51
2023-01-03T13:05:38.101Z,8.41
2023-01-03T13:08:19.002Z,8.43
2023-01-03T13:10:50.675Z,8.39
2023-01-03T13:13:19.966Z,8.36
2023-01-03T13:15:47.796Z,8.30
2023-01-03T13:18:23.381Z,8.32
2023-01-03T13:20:51.334Z,8.33
2023-01-03T13:23:32.081Z,8.34
2023-01-03T13:26:07.467Z,8.38
2023-01-03T13:28:37.761Z,8.32
2023-01-03T13:31:14.193Z,8.33
2023-01-03T13:34:16.833Z,8.34
2023-01-03T13:37:01.858Z,8.52
2023-01-03T13:39:38.424Z,8.53
2023-01-03T13:42:05.664Z,8.53
2023-01-03T13:44:32.319Z,8.55
2023-01-03T13:46:59.281Z,8.49
2023-01-03T13:49:28.750Z,8.36
2023-01-03T13:51:57.701Z,8.32
2023-01-03T13:54:33.459Z,8.34
2023-01-03T13:57:06.882Z,8.26
2023-01-03T13:59:43.773Z,8.15
2023-01-03T14:02:13.307Z,8.13
2023-01-03T14:04:52.032Z,8.03
2023-01-03T14:07:50.939Z,7.95
2023-01-03T14:10:31.123Z,7.87
2023-01-03T14:13:03.519Z,7.81
2023-01-03T14:15:32.349Z,7.78
2023-01-03T14:18:26.398Z,7.73
2023-01-03T14:20:54.948Z,7.75
2023-01-03T14:23:58.619Z,7.71
2023-01-03T14:26:18.405Z,7.78
2023-01-03T14:28:50.481Z,7.73
2023-01-03T14:31:21.120Z,7.74
2023-01-03T14:34:02.855Z,7.75
2023-01-03T14:36:29.599Z,7.78
2023-01-03T14:39:01.367Z,7.78
2023-01-03T14:41:36.799Z,7.79
2023-01-03T14:44:17.406Z,7.76
2023-01-03T14:46:53.632Z,7.73
2023-01-03T14:49:30.120Z,7.75
2023-01-03T14:52:04.252Z,7.66
2023-01-03T14:54:31.192Z,7.60
2023-01-03T14:57:00.320Z,7.50
2023-01-03T14:59:27.194Z,7.40
2023-01-03T15:01:53.798Z,7.35
2023-01-03T15:04:24.315Z,7.26
2023-01-03T15:07:03.710Z,7.14
2023-01-03T15:09:35.763Z,7.05
2023-01-03T15:12:05.985Z,6.92
2023-01-03T15:14:36.083Z,6.81
2023-01-03T15:17:11.407Z,6.75
2023-01-03T15:19:41.218Z,6.61
2023-01-03T15:22:22.445Z,6.60
2023-01-03T15:24:53.754Z,6.54
2023-01-03T15:27:34.352Z,6.43
2023-01-03T15:30:16.182Z,6.34
2023-01-03T15:32:49.803Z,6.26
2023-01-03T15:35:21.408Z,6.16
2023-01-03T15:37:52.897Z,6.08
2023-01-03T15:40:19.517Z,6.07
2023-01-03T15:43:04.812Z,6.03
2023-01-03T15:45:40.132Z,5.84
2023-01-03T15:48:13.917Z,5.74
2023-01-03T15:50:46.926Z,5.66
2023-01-03T15:53:29.320Z,5.60
2023-01-03T15:56:01.441Z,5.51
2023-01-03T15:58:29.042Z,5.41
2023-01-03T16:00:55.628Z,5.35
2023-01-03T16:03:24.465Z,5.29
2023-01-03T16:05:51.254Z,5.28
2023-01-03T16:08:25.044Z,5.22
2023-01-03T16:10:52.012Z,5.10
2023-01-03T16:13:19.947Z,5.04
2023-01-03T16:15:47.814Z,4.97
2023-01-03T16:18:15.984Z,4.91
2023-01-03T16:20:42.438Z,4.86
2023-01-03T16:23:23.040Z,4.76
2023-01-03T16:25:49.429Z,4.76
2023-01-03T16:28:15.808Z,4.69
2023-01-03T16:30:42.733Z,4.65
2023-01-03T16:33:20.456Z,4.66
2023-01-03T16:35:47.940Z,4.75
2023-01-03T16:38:14.483Z,4.76
2023-01-03T16:40:41.263Z,4.81
2023-01-03T16:43:08.114Z,4.83
2023-01-03T16:45:40.831Z,4.83
2023-01-03T16:48:17.267Z,4.86
2023-01-03T16:50:44.963Z,4.86
2023-01-03T16:53:23.201Z,4.90
2023-01-03T16:55:53.846Z,4.94
2023-01-03T16:58:20.689Z,4.94
2023-01-03T17:00:47.202Z,4.92
2023-01-03T17:03:13.745Z,4.89
2023-01-03T17:05:40.416Z,4.94
2023-01-03T17:08:31.710Z,4.95
2023-01-03T17:10:58.454Z,4.92
2023-01-03T17:13:28.263Z,4.89
2023-01-03T17:15:56.625Z,4.89
2023-01-03T17:18:26.018Z,4.87
2023-01-03T17:20:56.591Z,4.88
2023-01-03T17:23:23.747Z,4.95
2023-01-03T17:25:50.721Z,4.98
2023-01-03T17:28:17.291Z,4.94
2023-01-03T17:30:44.144Z,4.93
2023-01-03T17:33:14.855Z,4.94
2023-01-03T17:35:42.578Z,4.95
2023-01-03T17:38:25.716Z,4.99
2023-01-03T17:40:55.239Z,4.98
2023-01-03T17:43:24.134Z,4.99
2023-01-03T17:46:23.139Z,5.00
2023-01-03T17:49:09.076Z,5.04
2023-01-03T17:51:35.627Z,5.03
2023-01-03T17:54:04.688Z,5.06
2023-01-03T17:56:31.245Z,5.10
2023-01-03T17:58:57.621Z,5.15
2023-01-03T18:01:24.182Z,5.19
2023-01-03T18:03:50.910Z,5.24
2023-01-03T18:06:23.734Z,5.28
2023-01-03T18:08:51.824Z,5.35
2023-01-03T18:11:20.763Z,5.38
2023-01-03T18:13:49.071Z,5.42
2023-01-03T18:16:21.432Z,5.51
2023-01-03T18:18:48.730Z,5.53
2023-01-03T18:21:24.392Z,5.57
2023-01-03T18:23:57.637Z,5.61
2023-01-03T18:26:30.039Z,5.65
2023-01-03T18:28:56.493Z,5.70
2023-01-03T18:31:22.928Z,5.74
2023-01-03T18:33:49.431Z,5.80
2023-01-03T18:36:28.014Z,5.85
2023-01-03T18:39:00.935Z,5.82
2023-01-03T18:41:30.217Z,5.84
2023-01-03T18:43:56.753Z,5.89
2023-01-03T18:46:38.376Z,5.95
2023-01-03T18:49:04.684Z,5.97
2023-01-03T18:51:31.077Z,5.99
2023-01-03T18:53:58.805Z,5.96
2023-01-03T18:56:29.685Z,5.96
2023-01-03T18:59:02.239Z,6.09
2023-01-03T19:01:29.441Z,6.05
2023-01-03T19:03:56.301Z,6.09
2023-01-03T19:06:30.338Z,6.07
2023-01-03T19:09:03.362Z,6.08
2023-01-03T19:11:35.979Z,6.07
2023-01-03T19:14:03.953Z,6.06
2023-01-03T19:16:35.899Z,6.05
2023-01-03T19:19:03.704Z,6.07
2023-01-03T19:21:36.623Z,6.05
2023-01-03T19:24:08.608Z,6.05
2023-01-03T19:26:50.755Z,6.06
2023-01-03T19:29:26.418Z,6.03
2023-01-03T19:31:58.257Z,6.03
2023-01-03T19:34:26.529Z,6.01
2023-01-03T19:36:53.300Z,6.03
2023-01-03T19:39:25.364Z,6.00
2023-01-03T19:42:15.032Z,5.98
2023-01-03T19:44:41.645Z,6.04
2023-01-03T19:47:13.298Z,6.02
2023-01-03T19:49:39.845Z,6.04
2023-01-03T19:52:06.312Z,6.00
2023-01-03T19:54:32.849Z,5.97
2023-01-03T19:57:01.938Z,6.00
2023-01-03T19:59:35.027Z,5.94
2023-01-03T20:02:24.596Z,5.88
2023-01-03T20:04:51.772Z,5.83
2023-01-03T20:07:18.370Z,5.70
2023-01-03T20:09:44.778Z,5.66
2023-01-03T20:12:15.724Z,5.61
2023-01-03T20:14:46.982Z,5.58
2023-01-03T20:17:24.892Z,5.61
2023-01-03T20:19:52.569Z,5.61
2023-01-03T20:22:53.522Z,5.63
2023-01-03T20:25:16.249Z,5.54
2023-01-03T20:27:45.684Z,5.52
2023-01-03T20:30:17.212Z,5.54
2023-01-03T20:32:43.989Z,5.38
2023-01-03T20:35:56.182Z,5.33
2023-01-03T20:38:02.197Z,5.26
2023-01-03T20:40:28.772Z,5.29
2023-01-03T20:42:57.449Z,5.20
2023-01-03T20:45:23.842Z,5.20
2023-01-03T20:47:52.344Z,5.21
2023-01-03T20:50:22.266Z,5.21
2023-01-03T20:52:49.347Z,5.23
2023-01-03T20:55:20.949Z,5.27
2023-01-03T20:57:48.084Z,5.28
2023-01-03T21:00:22.188Z,5.28
2023-01-03T21:02:49.944Z,5.25
2023-01-03T21:05:19.508Z,5.23
2023-01-03T21:08:05.028Z,5.20
2023-01-03T21:10:36.368Z,5.30
2023-01-03T21:13:02.804Z,5.27
2023-01-03T21:15:29.311Z,5.29
2023-01-03T21:17:58.387Z,5.25
2023-01-03T21:20:26.851Z,5.26
2023-01-03T21:22:53.616Z,5.30
2023-01-03T21:25:23.912Z,5.28
2023-01-03T21:27:51.091Z,5.26
2023-01-03T21:30:19.166Z,5.31
2023-01-03T21:32:46.212Z,5.35
2023-01-03T21:35:14.865Z,5.37
2023-01-03T21:37:41.836Z,5.36
2023-01-03T21:40:16.436Z,5.38
2023-01-03T21:43:04.461Z,5.38
2023-01-03T21:45:37.189Z,5.35
2023-01-03T21:48:06.449Z,5.32
2023-01-03T21:50:34.368Z,5.30
2023-01-03T21:53:00.778Z,5.26
2023-01-03T21:55:27.304Z,5.23
2023-01-03T21:57:53.772Z,5.17
2023-01-03T22:00:20.435Z,5.18
2023-01-03T22:03:08.542Z,5.16
2023-01-03T22:05:35.123Z,5.11
2023-01-03T22:08:02.310Z,5.08
2023-01-03T22:10:30.449Z,5.05
2023-01-03T22:13:00.138Z,5.10
2023-01-03T22:15:26.980Z,5.04
2023-01-03T22:17:54.845Z,5.01
2023-01-03T22:20:26.060Z,4.97
2023-01-03T22:22:53.208Z,4.97
2023-01-03T22:25:22.775Z,4.96
2023-01-03T22:27:49.545Z,4.88
2023-01-03T22:30:18.112Z,4.81
2023-01-03T22:32:45.354Z,4.76
2023-01-03T22:35:13.852Z,4.75
2023-01-03T22:37:40.774Z,4.73
2023-01-03T22:40:10.873Z,4.68
2023-01-03T22:42:37.341Z,4.70
2023-01-03T22:45:04.592Z,4.69
2023-01-03T22:47:31.025Z,4.67
2023-01-03T22:49:57.477Z,4.68
2023-01-03T22:52:23.874Z,4.61
2023-01-03T22:54:50.422Z,4.63
2023-01-03T22:57:16.968Z,4.57
2023-01-03T22:59:43.338Z,4.56
2023-01-03T23:02:10.085Z,4.51
2023-01-03T23:04:36.623Z,4.45
2023-01-03T23:07:03.065Z,4.49
2023-01-03T23:09:29.494Z,4.42
2023-01-03T23:12:14.625Z,4.42
2023-01-03T23:14:41.088Z,4.46
2023-01-03T23:17:26.405Z,4.33
2023-01-03T23:19:52.793Z,4.33
2023-01-03T23:22:19.237Z,4.29
2023-01-03T23:24:45.708Z,4.27
2023-01-03T23:27:12.782Z,4.27
2023-01-03T23:29:39.419Z,4.23
2023-01-03T23:32:06.115Z,4.22
2023-01-03T23:34:32.745Z,4.17
2023-01-03T23:36:59.130Z,4.13
2023-01-03T23:39:25.651Z,4.06
2023-01-03T23:41:52.043Z,4.05
2023-01-03T23:44:18.464Z,3.99
2023-01-03T23:46:44.858Z,3.98
2023-01-03T23:49:13.362Z,4.02
2023-01-03T23:51:40.157Z,4.06
2023-01-03T23:54:06.580Z,4.00
2023-01-03T23:56:33.326Z,4.03
2023-01-03T23:58:59.913Z,4.07
